Time;durP1;ratioP1;P1;durP2;ratioP2;P2;SDS_P1;SDS_P2;PMS_P1;PMS_P2;Temp;Humidity;BMP_temperature;BMP_pressure;BME280_temperature;BME280_humidity;BME280_pressure;Samples;Min_cycle;Max_cycle;Signal;HPM_P1;HPM_P2
2022/11/07 00:01:27;;;;;;;7.17;2.60;;;;;;;16.95;70.09;100644.66;5049310;28;20075;-69
2022/11/07 00:03:55;;;;;;;5.93;2.27;;;;;;;18.45;61.00;100641.81;5050237;28;20029;-68
2022/11/07 00:06:21;;;;;;;10.13;2.53;;;;;;;17.44;65.71;100647.09;5047682;28;20112;-69
2022/11/07 00:08:48;;;;;;;4.63;2.23;;;;;;;17.22;65.90;100647.13;5050544;28;20033;-68
2022/11/07 00:11:13;;;;;;;9.43;2.30;;;;;;;17.46;64.09;100656.66;5050516;28;20417;-68
2022/11/07 00:13:39;;;;;;;17.17;3.20;;;;;;;17.59;64.24;100650.88;5050231;28;20040;-69
2022/11/07 00:16:08;;;;;;;9.67;2.70;;;;;;;17.22;64.00;100652.41;5049897;28;20025;-68
2022/11/07 00:18:34;;;;;;;6.40;2.13;;;;;;;17.75;64.21;100657.22;5050389;28;20060;-68
2022/11/07 00:21:01;;;;;;;9.87;2.50;;;;;;;17.33;65.90;100660.72;5049201;28;20017;-68
2022/11/07 00:23:26;;;;;;;10.57;2.20;;;;;;;17.80;63.41;100657.00;5047145;28;20526;-69
2022/11/07 00:25:51;;;;;;;6.20;2.00;;;;;;;18.48;60.35;100657.56;5050373;28;20052;-69
2022/11/07 00:28:17;;;;;;;7.57;2.50;;;;;;;17.17;66.77;100654.34;5050279;28;20103;-68
2022/11/07 00:30:42;;;;;;;12.70;2.30;;;;;;;17.94;62.29;100648.50;5051539;28;20029;-68
2022/11/07 00:33:08;;;;;;;9.70;2.43;;;;;;;18.24;60.94;100653.38;5050391;28;20052;-68
2022/11/07 00:35:33;;;;;;;8.40;2.10;;;;;;;17.70;62.12;100664.47;5049378;28;20048;-69
2022/11/07 00:37:58;;;;;;;8.37;2.10;;;;;;;18.40;59.80;100659.69;5077474;28;20552;-68
2022/11/07 00:40:24;;;;;;;14.07;3.17;;;;;;;17.12;65.85;100673.03;5051463;28;20043;-69
2022/11/07 00:42:49;;;;;;;11.67;2.43;;;;;;;17.55;64.56;100659.84;5050853;28;20025;-68
2022/11/07 00:45:14;;;;;;;14.17;2.97;;;;;;;17.77;63.09;100668.56;5049206;28;20509;-69
2022/11/07 00:47:40;;;;;;;9.67;2.23;;;;;;;17.67;64.56;100669.91;5048922;28;20025;-68
2022/11/07 00:50:06;;;;;;;10.13;2.70;;;;;;;17.65;63.58;100671.75;5049034;28;20056;-68
2022/11/07 00:52:31;;;;;;;11.97;2.20;;;;;;;18.21;60.21;100669.41;5048070;28;20558;-68
2022/11/07 00:54:57;;;;;;;10.33;2.30;;;;;;;17.87;62.09;100682.25;5049445;28;20025;-68
2022/11/07 00:57:22;;;;;;;11.03;1.97;;;;;;;18.03;61.45;100677.22;5049570;28;20033;-69
2022/11/07 00:59:47;;;;;;;10.60;2.27;;;;;;;17.85;62.96;100676.19;5049257;28;20076;-69
2022/11/07 01:02:13;;;;;;;9.83;2.03;;;;;;;17.93;63.51;100691.78;5048794;28;20020;-68
2022/11/07 01:07:22;;;;;;;17.77;2.67;;;;;;;17.91;61.33;100688.28;5048936;28;20402;-68
2022/11/07 01:09:48;;;;;;;13.27;2.93;;;;;;;17.33;64.51;100697.72;5049396;28;20049;-69
2022/11/07 01:12:13;;;;;;;13.90;2.37;;;;;;;18.18;62.24;100688.06;5048904;28;20032;-68
2022/11/07 01:14:38;;;;;;;9.90;2.70;;;;;;;18.05;62.47;100693.00;5082373;28;20076;-68
2022/11/07 01:17:04;;;;;;;6.93;1.80;;;;;;;18.33;60.25;100700.59;5047835;28;20032;-68
2022/11/07 01:19:29;;;;;;;10.20;2.20;;;;;;;18.02;60.89;100707.22;5048271;28;20398;-69
2022/11/07 01:21:55;;;;;;;13.33;2.60;;;;;;;17.72;62.48;100715.50;5050998;28;20471;-69
2022/11/07 01:24:20;;;;;;;14.87;3.00;;;;;;;17.98;63.03;100705.63;5048525;28;20036;-69
2022/11/07 01:26:50;;;;;;;10.90;2.00;;;;;;;17.72;63.14;100717.28;5048747;28;20033;-68
2022/11/07 01:29:17;;;;;;;11.37;1.83;;;;;;;18.12;61.13;100729.72;5048763;28;20036;-68
2022/11/07 01:31:42;;;;;;;10.80;2.00;;;;;;;17.33;65.35;100739.97;5048366;28;20036;-69
2022/11/07 01:34:08;;;;;;;10.90;2.30;;;;;;;18.90;59.86;100726.28;5047776;28;20029;-68
2022/11/07 01:36:33;;;;;;;10.07;2.10;;;;;;;18.29;60.28;100720.19;5050081;28;20039;-68
2022/11/07 01:38:59;;;;;;;10.93;2.37;;;;;;;16.91;65.65;100724.88;5049982;28;20401;-68
2022/11/07 01:41:28;;;;;;;9.73;2.80;;;;;;;17.44;64.28;100716.63;5047344;28;20029;-68
2022/11/07 01:44:05;;;;;;;10.33;2.33;;;;;;;17.69;65.16;100715.63;5049839;28;20071;-68
2022/11/07 01:46:34;;;;;;;10.13;2.13;;;;;;;17.68;64.55;100724.50;5049918;28;20304;-69
2022/11/07 01:49:05;;;;;;;10.40;2.20;;;;;;;18.08;64.36;100733.41;5048209;28;20126;-69
2022/11/07 01:51:36;;;;;;;14.10;1.90;;;;;;;17.27;66.58;100740.25;5048959;28;20033;-68
2022/11/07 01:54:03;;;;;;;10.73;2.23;;;;;;;17.26;68.74;100725.31;5047651;28;20072;-69
2022/11/07 01:56:32;;;;;;;12.90;2.63;;;;;;;17.62;63.15;100724.72;5048574;28;20447;-68
2022/11/07 01:58:59;;;;;;;12.10;2.63;;;;;;;17.78;62.86;100723.16;5048690;28;20033;-68
2022/11/07 02:01:24;;;;;;;14.60;2.87;;;;;;;17.39;67.50;100729.19;5049050;28;20032;-68
2022/11/07 02:03:52;;;;;;;6.77;2.53;;;;;;;17.84;64.46;100724.69;5081546;28;20017;-69
2022/11/07 02:06:25;;;;;;;7.70;2.00;;;;;;;17.55;67.05;100731.19;5047577;28;20024;-69
2022/11/07 02:08:51;;;;;;;9.17;2.90;;;;;;;18.39;62.56;100732.06;5081750;28;20394;-68
2022/11/07 02:11:17;;;;;;;12.60;2.17;;;;;;;17.85;64.87;100728.22;5047713;28;20093;-69
2022/11/07 02:13:42;;;;;;;5.67;2.30;;;;;;;19.01;57.34;100713.41;5048190;28;20021;-69
2022/11/07 02:16:08;;;;;;;10.87;2.50;;;;;;;17.56;64.16;100725.00;5048853;28;20059;-68
2022/11/07 02:18:39;;;;;;;10.67;2.13;;;;;;;18.36;61.15;100726.91;5052497;28;20731;-69
2022/11/07 02:21:17;;;;;;;7.47;2.27;;;;;;;17.68;66.34;100729.78;5051505;28;20442;-69
2022/11/07 02:23:57;;;;;;;7.40;2.33;;;;;;;17.43;65.74;100733.44;5071981;28;20024;-68
2022/11/07 02:26:24;;;;;;;13.03;2.90;;;;;;;16.97;67.85;100737.84;5052011;28;20697;-68
2022/11/07 02:28:52;;;;;;;9.40;2.10;;;;;;;16.98;67.42;100729.03;5051746;28;20114;-69
2022/11/07 02:31:17;;;;;;;9.23;2.00;;;;;;;17.23;65.60;100730.72;5051814;28;20029;-69
2022/11/07 02:33:42;;;;;;;9.63;2.13;;;;;;;17.99;62.35;100739.09;5050867;28;20021;-69
2022/11/07 02:36:14;;;;;;;10.90;2.47;;;;;;;17.51;65.16;100737.53;5084674;28;20029;-69
2022/11/07 02:38:39;;;;;;;9.83;2.37;;;;;;;17.16;67.52;100747.69;5052271;28;20502;-68
2022/11/07 02:41:20;;;;;;;9.23;2.13;;;;;;;18.16;61.63;100730.41;5050168;28;20063;-69
2022/11/07 02:43:51;;;;;;;8.97;2.17;;;;;;;17.55;66.24;100742.63;5052348;28;20114;-69
2022/11/07 02:46:17;;;;;;;9.50;2.50;;;;;;;17.58;66.80;100741.63;5051478;28;20024;-68
2022/11/07 02:48:48;;;;;;;10.57;2.20;;;;;;;18.20;64.22;100736.44;5083787;28;20512;-68
2022/11/07 02:51:13;;;;;;;10.53;3.03;;;;;;;17.15;67.00;100751.28;5051280;28;20025;-68
2022/11/07 02:53:39;;;;;;;7.63;1.90;;;;;;;17.79;65.39;100738.13;5052248;28;20029;-68
2022/11/07 02:56:05;;;;;;;8.60;3.30;;;;;;;18.16;64.21;100746.28;5052146;28;20033;-68
2022/11/07 02:58:30;;;;;;;15.27;2.60;;;;;;;17.23;65.93;100741.28;5051912;28;20608;-68
2022/11/07 03:01:01;;;;;;;12.63;2.83;;;;;;;19.01;60.15;100739.88;5051720;28;20021;-68
2022/11/07 03:03:28;;;;;;;15.50;3.30;;;;;;;18.23;61.29;100746.88;5043581;28;20020;-68
2022/11/07 03:05:53;;;;;;;12.97;2.83;;;;;;;18.22;61.82;100745.19;5051112;28;20492;-69
2022/11/07 03:08:19;;;;;;;9.93;2.40;;;;;;;18.83;59.59;100741.56;5085350;28;20071;-68
2022/11/07 03:10:44;;;;;;;14.97;2.47;;;;;;;17.26;65.27;100749.06;5050137;28;20486;-68
2022/11/07 03:13:09;;;;;;;6.50;2.20;;;;;;;18.58;59.84;100752.44;5050587;28;20047;-68
2022/11/07 03:15:35;;;;;;;9.77;2.50;;;;;;;18.51;59.13;100751.00;5084538;28;20024;-68
2022/11/07 03:18:00;;;;;;;13.40;2.23;;;;;;;18.08;61.29;100749.28;5050856;28;20074;-68
2022/11/07 03:20:26;;;;;;;13.07;2.93;;;;;;;18.36;58.87;100756.00;5051933;28;20130;-69
2022/11/07 03:22:51;;;;;;;14.70;2.60;;;;;;;18.86;56.32;100756.47;5049101;28;20036;-69
2022/11/07 03:25:16;;;;;;;11.23;2.20;;;;;;;18.24;59.45;100753.91;5050768;28;20032;-68
2022/11/07 03:27:47;;;;;;;14.67;2.20;;;;;;;17.59;61.22;100768.00;5083099;28;20031;-68
2022/11/07 03:30:13;;;;;;;11.47;2.67;;;;;;;17.99;61.17;100760.25;5051535;28;20493;-68
2022/11/07 03:32:38;;;;;;;12.47;2.70;;;;;;;17.43;64.51;100751.03;5050429;28;20106;-68
2022/11/07 03:35:04;;;;;;;12.43;2.00;;;;;;;18.48;59.91;100757.28;5049839;28;20167;-69
2022/11/07 03:37:30;;;;;;;12.97;2.50;;;;;;;17.79;63.01;100751.34;5084163;28;20021;-69
2022/11/07 03:39:55;;;;;;;16.97;2.50;;;;;;;17.53;64.81;100751.53;5052708;28;20486;-69
2022/11/07 03:42:20;;;;;;;18.00;2.30;;;;;;;19.07;56.73;100750.22;5046297;28;20017;-68
2022/11/07 03:44:46;;;;;;;16.60;2.77;;;;;;;18.02;61.90;100746.88;5047048;28;20124;-68
2022/11/07 03:47:11;;;;;;;15.37;3.30;;;;;;;18.32;62.29;100741.19;5050998;28;20501;-68
2022/11/07 03:49:36;;;;;;;15.27;3.20;;;;;;;18.60;61.00;100740.84;5051647;28;20489;-68
2022/11/07 03:52:02;;;;;;;15.27;2.60;;;;;;;17.55;64.75;100736.47;5049614;28;20029;-69
2022/11/07 03:54:27;;;;;;;11.37;2.30;;;;;;;18.10;60.82;100733.34;5050124;28;20024;-68
2022/11/07 03:56:52;;;;;;;11.17;2.57;;;;;;;17.84;62.92;100740.56;5050026;28;20017;-69
2022/11/07 03:59:18;;;;;;;12.07;3.70;;;;;;;18.18;60.55;100743.59;5048266;28;20474;-69
2022/11/07 04:01:44;;;;;;;15.97;2.73;;;;;;;17.36;64.92;100745.13;5050916;28;20485;-69
2022/11/07 04:04:09;;;;;;;18.00;3.43;;;;;;;18.35;61.78;100746.34;5050296;28;20382;-68
2022/11/07 04:06:35;;;;;;;16.03;3.03;;;;;;;18.62;58.64;100748.72;5049936;28;20032;-68
2022/11/07 04:09:00;;;;;;;14.47;2.63;;;;;;;18.25;60.15;100753.00;5083904;28;20025;-69
2022/11/07 04:19:37;;;;;;;12.63;2.40;;;;;;;18.17;60.12;100758.59;5051177;28;20048;-68
2022/11/07 04:22:03;;;;;;;16.73;2.50;;;;;;;18.00;61.59;100751.41;5048457;28;20021;-69
2022/11/07 04:24:28;;;;;;;15.03;2.63;;;;;;;18.63;59.78;100751.28;5050470;28;20031;-68
2022/11/07 04:29:37;;;;;;;13.93;2.50;;;;;;;18.03;61.97;100748.59;5051958;28;20059;-68
2022/11/07 04:32:03;;;;;;;9.07;1.97;;;;;;;18.42;60.42;100747.81;5048200;28;20029;-68
2022/11/07 04:34:28;;;;;;;17.53;2.57;;;;;;;17.96;59.95;100741.88;5049490;28;20450;-68
2022/11/07 04:36:53;;;;;;;14.73;3.17;;;;;;;18.70;58.93;100740.41;5049554;28;20047;-69
2022/11/07 04:39:19;;;;;;;13.10;3.10;;;;;;;19.13;57.43;100734.00;5050211;28;20120;-68
2022/11/07 04:41:44;;;;;;;16.53;2.60;;;;;;;18.64;59.27;100742.44;5046089;28;20154;-69
2022/11/07 04:44:09;;;;;;;18.40;2.20;;;;;;;18.13;60.46;100742.00;5049380;28;20086;-68
2022/11/07 04:46:35;;;;;;;14.23;2.40;;;;;;;18.58;59.10;100747.13;5050851;28;20025;-69
2022/11/07 04:49:00;;;;;;;14.63;2.37;;;;;;;18.03;61.36;100753.91;5044130;28;20508;-69
2022/11/07 04:51:25;;;;;;;15.73;2.73;;;;;;;18.85;58.31;100746.78;5050193;28;20109;-68
2022/11/07 04:53:51;;;;;;;14.67;2.40;;;;;;;18.09;60.95;100750.13;5049190;28;20102;-69
2022/11/07 04:56:16;;;;;;;25.67;3.60;;;;;;;18.74;58.76;100748.16;5048761;28;20037;-68
2022/11/07 04:58:41;;;;;;;14.27;2.43;;;;;;;18.92;59.77;100743.84;5048842;28;20581;-68
2022/11/07 05:01:07;;;;;;;15.50;2.30;;;;;;;18.41;60.44;100756.69;5050993;28;20082;-69
2022/11/07 05:03:32;;;;;;;10.30;2.20;;;;;;;18.48;59.93;100752.81;5049043;28;20041;-68
2022/11/07 05:05:58;;;;;;;19.07;3.27;;;;;;;17.94;63.00;100746.34;5050176;28;20104;-68
2022/11/07 05:08:23;;;;;;;17.13;3.87;;;;;;;18.59;60.70;100748.88;5049584;28;20473;-69
2022/11/07 05:10:48;;;;;;;12.77;2.70;;;;;;;18.33;59.94;100750.88;5049382;28;20029;-69
2022/11/07 05:13:14;;;;;;;18.27;2.50;;;;;;;18.09;60.47;100756.31;5050921;28;20086;-68
2022/11/07 05:15:39;;;;;;;21.27;2.73;;;;;;;18.63;60.96;100755.72;5048549;28;20028;-68
2022/11/07 05:18:05;;;;;;;18.17;2.63;;;;;;;18.45;59.87;100768.84;5048398;28;20017;-68
2022/11/07 05:20:33;;;;;;;17.27;2.73;;;;;;;17.58;63.84;100760.13;5048900;28;20374;-68
2022/11/07 05:23:11;;;;;;;22.43;3.40;;;;;;;17.62;65.45;100767.00;5047044;28;20394;-68
2022/11/07 05:25:39;;;;;;;14.93;2.67;;;;;;;17.50;66.68;100767.50;5048723;28;20032;-68
2022/11/07 05:28:05;;;;;;;19.87;2.90;;;;;;;17.30;65.30;100766.53;5050910;28;20028;-68
2022/11/07 05:30:31;;;;;;;18.40;2.97;;;;;;;19.02;61.12;100768.09;5047759;28;20021;-69
2022/11/07 05:32:56;;;;;;;18.23;2.93;;;;;;;18.54;61.88;100772.88;5048260;28;20082;-68
2022/11/07 05:35:22;;;;;;;14.55;2.47;;;;;;;18.28;62.76;100779.31;5048776;28;20044;-68
2022/11/07 05:37:48;;;;;;;16.50;3.00;;;;;;;18.70;59.10;100767.75;5048361;28;20032;-69
2022/11/07 05:40:13;;;;;;;23.73;3.07;;;;;;;18.68;60.19;100774.91;5050160;28;20028;-69
2022/11/07 05:42:38;;;;;;;18.17;3.13;;;;;;;18.75;59.98;100764.88;5049066;28;20052;-68
2022/11/07 05:45:04;;;;;;;15.10;3.07;;;;;;;18.51;59.76;100766.88;5082442;28;20398;-69
2022/11/07 05:47:30;;;;;;;13.97;2.67;;;;;;;19.41;56.72;100759.22;5048505;28;20367;-69
2022/11/07 05:49:55;;;;;;;16.63;3.57;;;;;;;18.43;61.82;100760.09;5064532;28;20032;-68
2022/11/07 05:52:20;;;;;;;14.10;2.63;;;;;;;18.19;61.84;100771.75;5049882;28;20056;-69
2022/11/07 05:54:46;;;;;;;20.03;3.30;;;;;;;18.96;58.47;100763.09;5086521;28;20063;-69
2022/11/07 05:57:11;;;;;;;15.10;3.93;;;;;;;19.41;56.40;100766.28;5086109;28;20079;-69
2022/11/07 05:59:36;;;;;;;15.47;2.77;;;;;;;18.58;59.43;100778.91;5052641;28;20049;-68
2022/11/07 06:02:02;;;;;;;14.93;2.97;;;;;;;19.07;57.46;100771.41;5053991;28;20029;-68
2022/11/07 06:04:27;;;;;;;16.13;3.27;;;;;;;18.30;62.43;100769.53;5053838;28;20029;-69
2022/11/07 06:06:52;;;;;;;20.40;3.63;;;;;;;18.16;61.37;100766.59;5052488;28;20468;-69
2022/11/07 06:09:18;;;;;;;14.57;3.60;;;;;;;18.11;59.30;100770.31;5051129;28;20489;-68
2022/11/07 06:11:43;;;;;;;20.73;3.23;;;;;;;19.37;56.67;100762.94;5052788;28;20102;-68
2022/11/07 06:14:08;;;;;;;18.93;4.37;;;;;;;19.36;56.80;100766.50;5052033;28;20568;-69
2022/11/07 06:16:34;;;;;;;9.05;2.97;;;;;;;18.69;58.48;100775.78;5084203;28;20485;-69
2022/11/07 06:19:00;;;;;;;18.13;3.47;;;;;;;19.02;58.59;100768.09;5051823;28;20025;-69
2022/11/07 06:21:25;;;;;;;15.90;3.40;;;;;;;18.37;58.58;100772.75;5052753;28;20013;-69
2022/11/07 06:23:50;;;;;;;16.77;4.20;;;;;;;18.75;57.24;100771.06;5051071;28;20060;-69
2022/11/07 06:26:16;;;;;;;12.37;2.77;;;;;;;19.09;56.81;100774.81;5050563;28;20029;-68
2022/11/07 06:28:41;;;;;;;17.25;3.33;;;;;;;18.03;61.66;100772.41;5053356;28;20492;-68
2022/11/07 06:31:06;;;;;;;21.73;2.93;;;;;;;17.90;60.43;100787.03;5051688;28;20459;-68
2022/11/07 06:33:32;;;;;;;16.87;3.27;;;;;;;18.60;59.42;100790.25;5051752;28;20078;-69
2022/11/07 06:36:09;;;;;;;16.70;2.15;;;;;;;18.74;59.23;100785.22;5057142;28;20021;-68
2022/11/07 06:38:35;;;;;;;15.60;3.20;;;;;;;17.83;61.15;100788.22;5047079;28;20094;-69
2022/11/07 06:41:05;;;;;;;17.13;3.70;;;;;;;18.18;60.11;100793.88;5051145;28;20032;-69
2022/11/07 06:43:31;;;;;;;18.17;2.58;;;;;;;18.65;59.38;100785.63;5050484;28;20060;-69
2022/11/07 06:45:56;;;;;;;20.38;3.55;;;;;;;18.45;59.70;100790.03;5055740;28;20060;-69
2022/11/07 06:48:22;;;;;;;11.48;2.65;;;;;;;19.03;57.30;100796.31;5083200;28;20106;-68
2022/11/07 06:50:54;;;;;;;16.73;4.45;;;;;;;18.48;59.48;100789.03;5052072;28;20382;-69
2022/11/07 06:53:19;;;;;;;9.70;2.88;;;;;;;17.58;62.28;100783.91;5085836;28;20039;-69
2022/11/07 06:55:45;;;;;;;14.00;3.27;;;;;;;17.91;65.27;100788.75;5050250;28;20405;-69
2022/11/07 06:58:10;;;;;;;13.93;2.90;;;;;;;17.83;64.32;100797.00;5052760;28;20536;-69
2022/11/07 07:00:36;;;;;;;13.30;2.40;;;;;;;17.83;64.15;100788.22;5050275;28;20036;-69
2022/11/07 07:03:01;;;;;;;19.03;3.30;;;;;;;18.54;61.51;100782.59;5050447;28;20048;-69
2022/11/07 07:05:27;;;;;;;14.03;3.10;;;;;;;17.70;63.20;100793.16;5053333;28;20044;-69
2022/11/07 07:07:54;;;;;;;13.07;2.50;;;;;;;18.21;63.05;100781.34;5052353;28;20418;-68
2022/11/07 07:10:19;;;;;;;18.85;3.58;;;;;;;17.59;64.57;100793.56;5081923;28;20029;-69
2022/11/07 07:12:44;;;;;;;14.37;2.37;;;;;;;18.09;61.41;100793.31;5050980;28;20024;-69
2022/11/07 07:15:10;;;;;;;18.45;3.00;;;;;;;17.77;63.32;100797.25;5051230;28;20264;-69
2022/11/07 07:17:35;;;;;;;15.98;2.60;;;;;;;17.92;63.00;100795.81;5052401;28;20545;-69
2022/11/07 07:20:01;;;;;;;10.93;2.80;;;;;;;18.48;60.24;100800.47;5050204;28;20043;-70
2022/11/07 07:22:26;;;;;;;20.10;3.93;;;;;;;18.58;60.10;100805.38;5049751;28;20120;-69
2022/11/07 07:24:52;;;;;;;14.40;2.92;;;;;;;18.36;60.22;100806.28;5051464;28;20382;-69
2022/11/07 07:27:19;;;;;;;11.77;2.15;;;;;;;18.67;59.11;100819.97;5054084;28;20033;-69
2022/11/07 07:29:45;;;;;;;15.88;2.72;;;;;;;18.21;61.94;100810.44;5052637;28;20068;-69
2022/11/07 07:32:11;;;;;;;18.87;3.57;;;;;;;18.61;59.33;100821.94;5055532;28;20406;-69
2022/11/07 07:34:36;;;;;;;14.57;2.53;;;;;;;18.90;59.37;100826.94;5051791;28;20041;-69
2022/11/07 07:37:01;;;;;;;19.65;3.75;;;;;;;18.41;61.81;100830.78;5055033;28;20053;-69
2022/11/07 07:39:27;;;;;;;17.13;2.75;;;;;;;17.93;63.06;100834.56;5039706;28;20036;-69
2022/11/07 07:41:52;;;;;;;13.27;2.93;;;;;;;18.35;61.20;100841.59;5052865;28;20107;-69
2022/11/07 07:44:17;;;;;;;14.80;3.88;;;;;;;19.28;57.87;100832.25;5055456;28;20024;-70
2022/11/07 07:46:43;;;;;;;12.32;2.78;;;;;;;18.08;61.96;100848.91;5050383;28;20029;-69
2022/11/07 07:49:08;;;;;;;11.70;2.78;;;;;;;18.01;64.13;100831.56;5047191;28;20079;-69
2022/11/07 07:51:34;;;;;;;9.82;2.40;;;;;;;18.54;61.93;100843.47;5046533;28;20036;-69
2022/11/07 07:54:00;;;;;;;15.45;3.08;;;;;;;18.91;60.11;100845.38;5053927;28;20020;-70
2022/11/07 07:56:26;;;;;;;15.07;2.97;;;;;;;17.87;63.48;100851.47;5052240;28;20084;-69
2022/11/07 07:58:51;;;;;;;17.70;2.80;;;;;;;18.55;60.68;100842.56;5049346;28;20041;-69
2022/11/07 08:01:17;;;;;;;16.65;3.10;;;;;;;18.76;59.32;100859.28;5083444;28;20075;-69
2022/11/07 08:03:42;;;;;;;11.00;2.42;;;;;;;19.55;57.63;100850.44;5050689;28;20021;-69
2022/11/07 08:06:09;;;;;;;15.75;2.33;;;;;;;18.58;58.81;100861.78;5051131;28;20108;-68
2022/11/07 08:08:35;;;;;;;17.38;2.45;;;;;;;18.80;59.57;100867.00;5051377;28;20028;-69
2022/11/07 08:11:05;;;;;;;15.23;2.70;;;;;;;18.44;61.42;100866.84;5050802;28;20135;-69
2022/11/07 08:13:31;;;;;;;13.50;2.80;;;;;;;18.73;61.21;100870.88;5051708;28;20033;-69
2022/11/07 08:15:57;;;;;;;13.48;2.80;;;;;;;18.87;59.91;100875.56;5053786;28;20013;-69
2022/11/07 08:18:23;;;;;;;19.77;2.72;;;;;;;18.76;60.36;100883.97;5048467;28;20024;-69
2022/11/07 08:20:54;;;;;;;24.50;2.72;;;;;;;18.81;60.05;100887.28;5049321;28;20021;-69
2022/11/07 08:23:20;;;;;;;18.23;2.90;;;;;;;18.93;61.03;100896.50;5049459;28;20383;-70
2022/11/07 08:25:56;;;;;;;15.73;3.30;;;;;;;18.82;59.38;100894.31;5050914;28;20143;-70
2022/11/07 08:28:24;;;;;;;11.55;2.30;;;;;;;18.72;59.84;100892.97;5046918;28;20025;-71
2022/11/07 08:31:01;;;;;;;16.48;2.70;;;;;;;19.76;56.22;100898.97;5046969;28;20036;-69
2022/11/07 08:33:27;;;;;;;19.95;3.47;;;;;;;19.56;57.44;100894.59;5047106;28;20020;-69
2022/11/07 08:35:59;;;;;;;15.88;3.05;;;;;;;19.12;58.33;100899.22;5054337;28;20400;-70
2022/11/07 08:38:25;;;;;;;12.98;2.35;;;;;;;19.47;57.01;100902.03;5047457;28;20044;-70
2022/11/07 08:40:51;;;;;;;13.80;2.53;;;;;;;18.72;59.17;100908.84;5050110;28;20025;-69
2022/11/07 08:43:17;;;;;;;18.67;2.88;;;;;;;19.24;58.67;100895.13;5049587;28;20032;-70
2022/11/07 08:45:43;;;;;;;11.75;2.97;;;;;;;19.11;60.89;100900.13;5048201;28;20550;-70
2022/11/07 08:48:08;;;;;;;13.80;2.55;;;;;;;20.01;56.24;100896.00;5049027;28;20040;-70
2022/11/07 08:50:34;;;;;;;11.40;2.15;;;;;;;19.22;58.70;100901.41;5050315;28;20040;-69
2022/11/07 08:52:59;;;;;;;8.43;2.55;;;;;;;19.43;58.05;100907.56;5048173;28;20097;-69
2022/11/07 08:55:24;;;;;;;9.02;2.40;;;;;;;19.51;57.46;100913.38;5045079;28;20397;-70
2022/11/07 08:57:50;;;;;;;12.07;2.72;;;;;;;18.86;61.97;100910.03;5047651;28;20393;-69
2022/11/07 09:00:15;;;;;;;16.65;2.80;;;;;;;18.77;62.42;100917.47;5053574;28;20132;-69
2022/11/07 09:02:41;;;;;;;8.98;2.47;;;;;;;18.94;60.46;100918.56;5046608;28;20070;-69
2022/11/07 09:05:08;;;;;;;8.98;2.17;;;;;;;19.35;58.98;100918.50;5045720;28;20456;-70
2022/11/07 09:07:36;;;;;;;12.13;3.22;;;;;;;19.08;58.75;100921.47;5062639;28;20033;-70
2022/11/07 09:10:02;;;;;;;18.70;3.30;;;;;;;19.63;57.25;100930.47;5051079;28;20032;-70
2022/11/07 09:12:28;;;;;;;18.52;3.15;;;;;;;19.32;59.05;100929.25;5048582;28;20025;-69
2022/11/07 09:14:53;;;;;;;9.25;2.72;;;;;;;20.21;56.33;100918.94;5049374;28;20024;-69
2022/11/07 09:17:18;;;;;;;16.13;2.35;;;;;;;19.72;57.05;100931.84;5047664;28;20408;-70
2022/11/07 09:19:44;;;;;;;12.02;2.50;;;;;;;19.43;58.18;100932.25;5047238;28;20040;-69
2022/11/07 09:22:09;;;;;;;12.18;2.42;;;;;;;19.69;57.95;100927.56;5047985;28;20033;-69
2022/11/07 09:24:34;;;;;;;15.57;2.90;;;;;;;19.40;58.94;100927.09;5077460;28;20387;-69
2022/11/07 09:27:00;;;;;;;15.68;2.70;;;;;;;19.88;55.92;100940.84;5046750;28;20089;-70
2022/11/07 09:29:25;;;;;;;23.55;3.72;;;;;;;18.95;60.85;100946.75;5044952;28;20087;-69
2022/11/07 09:31:50;;;;;;;9.02;2.17;;;;;;;19.35;58.11;100942.34;5070144;28;20028;-70
2022/11/07 09:34:16;;;;;;;15.45;3.25;;;;;;;19.76;58.47;100934.28;5051355;28;20025;-69
2022/11/07 09:36:41;;;;;;;15.30;2.90;;;;;;;19.07;60.43;100940.94;5043481;28;20033;-70
2022/11/07 09:39:06;;;;;;;11.30;2.63;;;;;;;19.08;61.58;100937.38;5047828;28;20031;-69
2022/11/07 09:41:48;;;;;;;17.75;3.40;;;;;;;19.99;58.61;100940.34;5047433;28;20536;-69
2022/11/07 09:44:44;;;;;;;8.55;2.67;;;;;;;19.55;59.87;100944.09;5050868;28;20025;-70
2022/11/07 09:47:09;;;;;;;16.88;2.78;;;;;;;20.74;55.58;100943.75;5050810;28;20493;-70
2022/11/07 09:49:43;;;;;;;14.75;2.95;;;;;;;19.78;57.91;100945.69;5052776;28;20037;-70
2022/11/07 09:52:18;;;;;;;15.90;2.85;;;;;;;20.22;57.36;100959.56;5070677;28;20133;-70
2022/11/07 09:54:51;;;;;;;16.40;2.72;;;;;;;19.45;60.31;100962.22;5052541;28;20050;-69
2022/11/07 09:57:18;;;;;;;13.43;2.40;;;;;;;20.39;55.90;100975.56;5049806;28;20569;-69
2022/11/07 09:59:50;;;;;;;12.30;2.75;;;;;;;20.52;55.97;100959.88;5040144;28;20095;-68
2022/11/07 10:02:19;;;;;;;21.38;2.78;;;;;;;20.44;56.62;100965.56;5042327;28;20025;-68
2022/11/07 10:04:48;;;;;;;10.73;2.22;;;;;;;19.24;61.45;100965.81;5040837;28;20052;-69
2022/11/07 10:07:38;;;;;;;13.07;2.45;;;;;;;19.62;59.12;100963.25;5035724;28;20082;-69
2022/11/07 10:10:52;;;;;;;10.07;2.10;;;;;;;20.92;54.08;100959.69;5042096;28;20409;-68
2022/11/07 10:13:39;;;;;;;12.50;2.67;;;;;;;20.91;53.66;100960.59;5026781;28;20084;-69
2022/11/07 10:16:16;;;;;;;17.73;2.72;;;;;;;20.79;53.04;100968.28;5060919;28;20033;-68
2022/11/07 10:18:45;;;;;;;10.45;2.42;;;;;;;20.98;54.40;100972.66;5044308;28;20094;-69
2022/11/07 10:21:34;;;;;;;10.75;3.03;;;;;;;20.24;54.92;100976.31;5046370;28;20048;-69
2022/11/07 10:24:22;;;;;;;21.85;2.90;;;;;;;19.81;56.37;100979.16;5045073;28;20063;-69
2022/11/07 10:26:47;;;;;;;12.00;2.47;;;;;;;20.98;53.68;100975.31;5048002;28;20053;-68
2022/11/07 10:29:15;;;;;;;17.95;3.38;;;;;;;21.49;51.52;100978.81;5041255;28;20060;-69
2022/11/07 10:31:47;;;;;;;22.70;3.30;;;;;;;21.22;51.58;100977.63;5052648;28;20029;-68
2022/11/07 10:34:36;;;;;;;17.80;2.40;;;;;;;20.45;53.51;100983.19;5054224;28;20486;-69
2022/11/07 10:37:03;;;;;;;20.65;3.05;;;;;;;19.94;56.64;100988.28;5035393;28;20140;-69
2022/11/07 10:39:30;;;;;;;16.45;2.40;;;;;;;20.51;54.38;100985.56;5079700;28;20496;-68
2022/11/07 10:42:07;;;;;;;21.58;3.08;;;;;;;20.90;52.48;100977.50;5051452;28;20466;-69
2022/11/07 10:44:34;;;;;;;15.38;3.85;;;;;;;21.40;50.86;100983.78;5051943;28;20025;-69
2022/11/07 10:47:01;;;;;;;16.65;3.92;;;;;;;20.93;53.10;100986.16;5048066;28;20490;-68
2022/11/07 10:49:30;;;;;;;17.25;3.00;;;;;;;19.47;56.45;100997.44;5052828;28;20032;-69
2022/11/07 10:52:08;;;;;;;10.25;2.47;;;;;;;19.96;55.82;100998.81;5051991;28;20036;-68
2022/11/07 10:54:34;;;;;;;19.98;2.53;;;;;;;21.14;52.27;101000.16;5054554;28;20029;-69
2022/11/07 10:57:27;;;;;;;13.73;2.35;;;;;;;20.79;54.26;100992.19;5049419;28;20032;-68
2022/11/07 10:59:57;;;;;;;12.75;2.65;;;;;;;21.17;52.05;100997.34;5046847;28;20079;-68
2022/11/07 11:02:22;;;;;;;22.10;4.10;;;;;;;20.95;52.51;100999.38;5044654;28;20025;-69
2022/11/07 11:04:53;;;;;;;11.85;3.28;;;;;;;20.38;53.89;100989.75;5047886;28;20043;-69
2022/11/07 11:07:20;;;;;;;12.70;2.78;;;;;;;21.18;52.37;100995.53;5046108;28;20048;-69
2022/11/07 11:09:54;;;;;;;16.65;2.80;;;;;;;20.39;55.53;100991.47;5043736;28;20029;-69
2022/11/07 11:12:25;;;;;;;18.30;3.40;;;;;;;21.51;52.79;100994.69;5050588;28;20047;-69
2022/11/07 11:15:03;;;;;;;13.60;2.13;;;;;;;20.61;52.81;100993.09;5045026;28;20043;-69
2022/11/07 11:17:29;;;;;;;6.63;1.75;;;;;;;21.26;52.18;100984.50;5055925;28;20581;-69
2022/11/07 11:19:55;;;;;;;12.75;2.42;;;;;;;21.27;52.24;100983.56;5050041;28;20120;-69
2022/11/07 11:22:23;;;;;;;14.38;4.00;;;;;;;21.05;52.79;100984.69;5050536;28;20040;-69
2022/11/07 11:25:15;;;;;;;8.63;2.03;;;;;;;20.81;53.44;100976.16;5049760;28;20032;-69
2022/11/07 11:27:43;;;;;;;12.60;2.55;;;;;;;20.43;53.90;100966.50;5068321;28;20059;-69
2022/11/07 11:30:15;;;;;;;13.10;2.35;;;;;;;21.67;50.47;100966.34;5048427;28;20036;-69
2022/11/07 11:32:57;;;;;;;12.95;2.70;;;;;;;21.38;51.09;100975.88;5060188;28;20036;-69
2022/11/07 11:35:35;;;;;;;11.88;2.50;;;;;;;20.87;52.92;100977.66;5065914;28;20485;-69